»·PEaware :: SWA626 KSAN-KLAS

SWA626 :: KSAN-KLAS

FLIGHT INFORMATION

Flight Status: Arrived
Operator:
Southwest Airlines
More flights by this operator :: More flights under this callsign
Pilot: Ben F. (2808)
Aircraft: BOEING 737-300
(B733)
More flights by this aircraft type
Origin: KSAN San Diego Intl-Lindbergh
United States
Destination: KLAS McCarran Intl
United States
More flights between these airports :: More routes between these airports
Route: PADRZ2 CHKNN SEBBY YELAH MISEN KEPEC6
File this flight plan on PilotEdge
Remarks:
Altitude:
(Current/Filed)
29,000ft
Speed:
(Current/Filed)
455kts
Departed: 21-Oct-19 04:56 PM
Arrived: 21-Oct-19 05:52 PM
Distance/Time
Traveled:
225nm/0:56
Distance/Time
To Go:
Arrived

Flight Plot

Page will automatically refresh every two minutes.

Flight plan parsing failed; only flown route is shown


Map Options




Map Legend


Flown Route
Filed Route
Departure Airport
Arrival Airport
Navaid (VOR, NDB)
Fix

Horizontal Profiles

Position Reports

Time Latitude Longitude Heading Altitude Ground
Speed
21-Oct-19 16:36 32.732571 -117.195499 311 20ft 0kts
21-Oct-19 16:37 32.732571 -117.195499 311 20ft 0kts
21-Oct-19 16:37 32.732571 -117.195499 311 20ft 0kts
21-Oct-19 16:39 32.732571 -117.195499 311 20ft 0kts
21-Oct-19 16:40 32.732571 -117.195499 311 20ft 0kts
21-Oct-19 16:40 32.732571 -117.195499 311 20ft 0kts
21-Oct-19 16:41 32.732571 -117.195499 311 20ft 0kts
21-Oct-19 16:43 32.732571 -117.195499 311 20ft 0kts
21-Oct-19 16:43 32.732571 -117.195499 311 20ft 0kts
21-Oct-19 16:44 32.732571 -117.195499 311 20ft 0kts
21-Oct-19 16:45 32.732505 -117.195409 311 20ft 2kts
21-Oct-19 16:46 32.732100 -117.194889 327 20ft 2kts
21-Oct-19 16:47 32.731993 -117.194821 335 20ft 0kts
21-Oct-19 16:48 32.732141 -117.194844 4 20ft 3kts
21-Oct-19 16:49 32.733023 -117.194326 29 20ft 4kts
21-Oct-19 16:50 32.732254 -117.188521 105 20ft 27kts
21-Oct-19 16:51 32.730026 -117.179396 105 18ft 29kts
21-Oct-19 16:52 32.729499 -117.176753 75 21ft 0kts
21-Oct-19 16:53 32.729499 -117.176753 75 21ft 0kts
21-Oct-19 16:54 32.730353 -117.176372 285 24ft 14kts
21-Oct-19 16:55 32.738276 -117.210748 286 632ft 180kts
21-Oct-19 16:56 32.766985 -117.263451 307 2936ft 204kts
21-Oct-19 16:57 32.802800 -117.323911 309 4810ft 244kts
21-Oct-19 16:58 32.848069 -117.393560 309 6859ft 280kts
21-Oct-19 16:59 32.896332 -117.468339 309 9527ft 288kts
21-Oct-19 17:00 32.949498 -117.551079 309 10958ft 342kts
21-Oct-19 17:01 33.007990 -117.642364 309 13553ft 351kts
21-Oct-19 17:02 33.069437 -117.735618 319 15871ft 361kts
21-Oct-19 17:03 33.147284 -117.814475 320 18046ft 371kts
21-Oct-19 17:04 33.228414 -117.895495 321 20117ft 381kts
21-Oct-19 17:05 33.311800 -117.976818 320 21969ft 391kts
21-Oct-19 17:06 33.397666 -118.060766 320 23582ft 402kts
21-Oct-19 17:07 33.485398 -118.146762 320 25069ft 413kts
21-Oct-19 17:08 33.576512 -118.235317 326 26372ft 425kts
21-Oct-19 17:09 33.685188 -118.296336 334 27592ft 436kts
21-Oct-19 17:10 33.800756 -118.307384 34 28938ft 444kts
21-Oct-19 17:11 33.871328 -118.186620 55 29045ft 440kts
21-Oct-19 17:12 33.938878 -118.059172 56 29063ft 454kts
21-Oct-19 17:13 34.007603 -117.930940 56 29056ft 453kts
21-Oct-19 17:14 34.076039 -117.802837 56 29057ft 452kts
21-Oct-19 17:15 34.152824 -117.684865 49 29059ft 452kts
21-Oct-19 17:16 34.233497 -117.567096 49 29058ft 452kts
21-Oct-19 17:17 34.308494 -117.457072 48 29057ft 453kts
21-Oct-19 17:18 34.383712 -117.346378 49 29054ft 453kts
21-Oct-19 17:19 34.463941 -117.227674 49 29059ft 453kts
21-Oct-19 17:20 34.544245 -117.108708 48 29057ft 453kts
21-Oct-19 17:21 34.624499 -116.989423 48 29056ft 454kts
21-Oct-19 17:22 34.704269 -116.870460 48 29056ft 454kts
21-Oct-19 17:23 34.784384 -116.750588 48 29093ft 454kts
21-Oct-19 17:24 34.865777 -116.632541 37 28576ft 452kts
21-Oct-19 17:25 34.963087 -116.539234 35 26482ft 442kts
21-Oct-19 17:26 35.058957 -116.446244 34 24407ft 431kts
21-Oct-19 17:27 35.143494 -116.353033 41 24178ft 430kts
21-Oct-19 17:28 35.223108 -116.252742 41 22774ft 420kts
21-Oct-19 17:29 35.302710 -116.152769 41 20842ft 402kts
21-Oct-19 17:30 35.379969 -116.055477 41 19031ft 389kts
21-Oct-19 17:31 35.454762 -115.961022 40 17213ft 375kts
21-Oct-19 17:32 35.524616 -115.872507 40 15390ft 346kts
21-Oct-19 17:33 35.588986 -115.790776 41 13853ft 319kts
21-Oct-19 17:34 35.647094 -115.716795 40 12959ft 280kts
21-Oct-19 17:35 35.702673 -115.645717 41 13006ft 287kts
21-Oct-19 17:36 35.760576 -115.579059 16 12995ft 277kts
21-Oct-19 17:37 35.837315 -115.571306 1 13002ft 275kts
21-Oct-19 17:38 35.914103 -115.566980 1 13000ft 274kts
21-Oct-19 17:39 35.981412 -115.531362 59 12770ft 296kts
21-Oct-19 17:40 36.010430 -115.440312 62 11560ft 269kts
21-Oct-19 17:41 36.029504 -115.351587 89 10793ft 281kts
21-Oct-19 17:42 36.022602 -115.258796 90 9437ft 275kts
21-Oct-19 17:43 36.015980 -115.166208 90 8642ft 259kts
21-Oct-19 17:44 36.009977 -115.077713 90 7234ft 249kts
21-Oct-19 17:45 36.004368 -114.993824 91 5956ft 239kts
21-Oct-19 17:46 36.024190 -114.930432 3 4904ft 205kts
21-Oct-19 17:47 36.067970 -114.950893 281 3975ft 180kts
21-Oct-19 17:48 36.072994 -115.012077 274 3827ft 177kts
21-Oct-19 17:49 36.073743 -115.070208 271 3035ft 157kts
21-Oct-19 17:50 36.073647 -115.123928 269 2208ft 151kts
21-Oct-19 17:51 36.074732 -115.150638 305 2119ft 16kts
21-Oct-19 17:52 36.077958 -115.149759 92 2118ft 16kts
21-Oct-19 17:53 36.078814 -115.146138 352 2119ft 8kts
21-Oct-19 17:54 36.079779 -115.146266 341 2118ft 0kts

Navigation Log

Ident Type
Flight plan parsing failed, navigation log unavailable